Hallock, Minnesota
Current Conditions -  °F | °C
As of 2:53 PM on Tuesday 25 Nov 2014 (Local Time) from KHCO Reporting Station
NA  
Wind Chill: 11°   Ceiling: NA
Heat Index: 18°   Visibility: 10mi
Dew Point: 10°   Wind: 5mph
Humidity: 73%   Direction: 340°NNW
Pressure: 29.96"   Gusts: NA
Location:  48.77°N, 96.95°W
Report Text: KHCO 252053Z AUTO 34004KT 10SM M08/M12 A2996 RMK AO2
Loading
Personal Weather Stations






























Interactive Weather Map New forecast layout! Learn more

10-Day Weather Forecast

Advertisements
Track Severe Weather on mobile